createdAt,value
2018-10-16T00:01:04.177Z,17.40
2018-10-16T00:03:32.504Z,22.53
2018-10-16T00:06:00.841Z,16.40
2018-10-16T00:08:29.177Z,22.63
2018-10-16T00:10:57.509Z,20.17
2018-10-16T00:13:25.841Z,20.43
2018-10-16T00:15:54.177Z,21.50
2018-10-16T00:18:22.541Z,21.53
2018-10-16T00:20:50.874Z,21.90
2018-10-16T00:23:19.197Z,20.20
2018-10-16T00:25:47.804Z,19.70
2018-10-16T00:28:17.929Z,17.80
2018-10-16T00:30:47.473Z,19.27
2018-10-16T00:33:16.689Z,19.03
2018-10-16T00:35:47.362Z,20.07
2018-10-16T00:38:16.462Z,20.73
2018-10-16T00:40:46.098Z,20.43
2018-10-16T00:43:15.682Z,19.93
2018-10-16T00:45:45.579Z,18.80
2018-10-16T00:48:15.525Z,19.13
2018-10-16T00:50:46.201Z,19.70
2018-10-16T00:53:15.104Z,19.70
2018-10-16T00:55:45.401Z,18.90
2018-10-16T00:58:15.025Z,22.80
2018-10-16T01:00:44.189Z,21.27
2018-10-16T01:03:14.485Z,17.90
2018-10-16T01:05:44.438Z,19.73
2018-10-16T01:08:14.644Z,17.53
2018-10-16T01:10:43.149Z,20.70
2018-10-16T01:13:11.498Z,25.57
2018-10-16T01:15:39.924Z,20.93
2018-10-16T01:18:09.133Z,18.87
2018-10-16T01:20:37.473Z,24.60
2018-10-16T01:23:06.094Z,15.53
2018-10-16T01:25:34.434Z,22.63
2018-10-16T01:28:02.805Z,22.83
2018-10-16T01:30:31.165Z,17.97
2018-10-16T01:33:00.534Z,15.57
2018-10-16T01:35:29.761Z,23.00
2018-10-16T01:37:59.142Z,17.13
2018-10-16T01:40:27.494Z,17.10
2018-10-16T01:42:56.882Z,18.53
2018-10-16T01:45:25.243Z,24.40
2018-10-16T01:47:54.570Z,20.60
2018-10-16T01:50:23.086Z,16.67
2018-10-16T01:52:52.310Z,19.20
2018-10-16T01:55:21.674Z,16.93
2018-10-16T01:57:50.889Z,17.30
2018-10-16T02:00:19.287Z,18.60
2018-10-16T02:02:48.505Z,15.80
2018-10-16T02:05:17.833Z,15.17
2018-10-16T02:07:47.174Z,15.37
2018-10-16T02:10:16.533Z,15.43
2018-10-16T02:12:45.997Z,20.70
2018-10-16T02:15:15.645Z,18.30
2018-10-16T02:17:45.116Z,22.53
2018-10-16T02:20:14.365Z,22.40
2018-10-16T02:22:46.394Z,17.90
2018-10-16T02:25:16.698Z,22.33
2018-10-16T02:27:47.580Z,17.17
2018-10-16T02:30:16.892Z,16.10
2018-10-16T02:32:47.593Z,24.20
2018-10-16T02:35:16.832Z,16.90
2018-10-16T02:37:47.582Z,21.00
2018-10-16T02:40:17.363Z,17.00
2018-10-16T02:42:46.629Z,20.70
2018-10-16T02:45:17.449Z,17.30
2018-10-16T02:47:46.821Z,17.27
2018-10-16T02:50:17.533Z,15.63
2018-10-16T02:52:46.386Z,14.10
2018-10-16T02:55:16.488Z,15.17
2018-10-16T02:57:46.153Z,16.27
2018-10-16T03:00:15.769Z,17.07
2018-10-16T03:02:45.073Z,25.23
2018-10-16T03:05:14.779Z,27.90
2018-10-16T03:07:43.211Z,17.37
2018-10-16T03:10:11.553Z,16.87
2018-10-16T03:12:39.886Z,14.67
2018-10-16T03:15:12.030Z,16.60
2018-10-16T03:17:40.725Z,19.27
2018-10-16T03:20:11.058Z,18.47
2018-10-16T03:25:42.517Z,15.07
2018-10-16T03:28:12.423Z,16.33
2018-10-16T03:30:41.046Z,20.00
2018-10-16T03:33:09.916Z,16.03
2018-10-16T03:35:38.479Z,22.97
2018-10-16T03:38:07.062Z,17.23
2018-10-16T03:40:36.531Z,15.70
2018-10-16T03:43:06.284Z,18.27
2018-10-16T03:45:35.709Z,32.53
2018-10-16T03:48:05.370Z,18.27
2018-10-16T03:50:35.017Z,23.63
2018-10-16T03:53:04.511Z,18.80
2018-10-16T03:55:33.879Z,21.37
2018-10-16T03:58:03.574Z,22.53
2018-10-16T04:00:33.128Z,21.40
2018-10-16T04:03:02.591Z,19.63
2018-10-16T04:05:32.076Z,20.87
2018-10-16T04:08:01.571Z,20.87
2018-10-16T04:10:30.989Z,24.20
2018-10-16T04:13:00.608Z,23.03
2018-10-16T04:15:30.208Z,18.57
2018-10-16T04:17:59.929Z,24.20
2018-10-16T04:20:29.372Z,25.87
2018-10-16T04:22:58.795Z,20.37
2018-10-16T04:25:27.979Z,26.87
2018-10-16T04:27:57.288Z,24.90
2018-10-16T04:30:27.170Z,32.13
2018-10-16T04:32:56.415Z,27.77
2018-10-16T04:35:25.680Z,18.53
2018-10-16T04:37:54.595Z,20.47
2018-10-16T04:40:23.154Z,19.83
2018-10-16T04:42:51.807Z,21.50
2018-10-16T04:45:20.362Z,21.90
2018-10-16T04:47:48.949Z,20.03
2018-10-16T04:50:17.499Z,25.00
2018-10-16T04:52:46.052Z,29.57
2018-10-16T04:55:14.721Z,21.60
2018-10-16T04:57:43.251Z,23.27
2018-10-16T05:00:11.857Z,23.00
2018-10-16T05:02:41.551Z,22.90
2018-10-16T05:05:21.595Z,21.03
2018-10-16T05:07:51.577Z,25.17
2018-10-16T05:10:21.772Z,28.13
2018-10-16T05:12:50.665Z,25.37
2018-10-16T05:15:22.401Z,25.33
2018-10-16T05:17:52.060Z,31.87
2018-10-16T05:20:21.531Z,26.93
2018-10-16T05:22:50.062Z,21.97
2018-10-16T05:25:18.634Z,28.07
2018-10-16T05:27:47.252Z,25.13
2018-10-16T05:30:17.249Z,26.30
2018-10-16T05:32:45.851Z,23.63
2018-10-16T05:35:14.412Z,37.17
2018-10-16T05:37:43.021Z,24.47
2018-10-16T05:40:11.860Z,24.30
2018-10-16T05:42:40.820Z,25.57
2018-10-16T05:45:11.389Z,23.53
2018-10-16T05:47:40.933Z,22.90
2018-10-16T05:50:10.110Z,27.27
2018-10-16T05:52:38.817Z,24.87
2018-10-16T05:55:07.931Z,32.13
2018-10-16T05:57:36.590Z,27.10
2018-10-16T06:00:17.612Z,26.47
2018-10-16T06:02:47.015Z,24.20
2018-10-16T06:05:16.499Z,25.60
2018-10-16T06:07:45.952Z,30.67
2018-10-16T06:10:15.591Z,27.53
2018-10-16T06:12:45.032Z,33.23
2018-10-16T06:15:14.506Z,26.67
2018-10-16T06:17:44.696Z,30.43
2018-10-16T06:20:14.310Z,33.00
2018-10-16T06:22:43.886Z,31.13
2018-10-16T06:25:13.473Z,33.70
2018-10-16T06:27:43.684Z,29.67
2018-10-16T06:30:13.417Z,26.50
2018-10-16T06:32:42.832Z,29.00
2018-10-16T06:35:11.883Z,28.50
2018-10-16T06:37:41.333Z,26.23
2018-10-16T06:40:11.384Z,31.07
2018-10-16T06:42:40.485Z,25.47
2018-10-16T06:45:10.370Z,32.33
2018-10-16T06:47:39.046Z,23.67
2018-10-16T06:50:09.441Z,27.27
2018-10-16T06:52:38.036Z,34.07
2018-10-16T06:55:06.710Z,31.87
2018-10-16T06:57:35.254Z,34.50
2018-10-16T07:00:04.215Z,30.87
2018-10-16T07:02:32.768Z,25.80
2018-10-16T07:05:01.314Z,34.17
2018-10-16T07:07:29.876Z,28.40
2018-10-16T07:09:58.455Z,24.00
2018-10-16T07:12:27.663Z,27.57
2018-10-16T07:14:56.666Z,29.80
2018-10-16T07:17:25.611Z,33.03
2018-10-16T07:19:54.164Z,36.90
2018-10-16T07:22:23.150Z,30.37
2018-10-16T07:24:51.760Z,31.10
2018-10-16T07:27:20.382Z,27.70
2018-10-16T07:29:49.015Z,27.47
2018-10-16T07:32:17.573Z,25.77
2018-10-16T07:34:46.163Z,30.33
2018-10-16T07:37:14.759Z,33.60
2018-10-16T07:39:43.329Z,29.47
2018-10-16T07:42:11.874Z,26.77
2018-10-16T07:44:40.505Z,25.97
2018-10-16T07:47:09.120Z,26.93
2018-10-16T07:49:38.230Z,29.20
2018-10-16T07:52:06.916Z,24.13
2018-10-16T07:54:35.484Z,27.87
2018-10-16T07:57:04.084Z,22.60
2018-10-16T07:59:35.231Z,21.80
2018-10-16T08:02:14.046Z,35.03
2018-10-16T08:04:42.604Z,25.13
2018-10-16T08:07:11.173Z,25.13
2018-10-16T08:09:39.727Z,26.27
2018-10-16T08:12:10.388Z,23.43
2018-10-16T08:14:40.491Z,22.77
2018-10-16T08:17:09.898Z,33.10
2018-10-16T08:19:38.496Z,27.43
2018-10-16T08:22:07.079Z,19.50
2018-10-16T08:24:35.689Z,18.80
2018-10-16T08:27:04.268Z,20.40
2018-10-16T08:29:32.874Z,25.07
2018-10-16T08:32:01.459Z,32.70
2018-10-16T08:34:30.010Z,21.37
2018-10-16T08:36:59.586Z,21.80
2018-10-16T08:39:31.047Z,20.40
2018-10-16T08:45:17.487Z,20.87
2018-10-16T08:47:57.953Z,22.47
2018-10-16T08:50:39.120Z,26.00
2018-10-16T08:53:07.699Z,21.57
2018-10-16T08:55:36.881Z,26.33
2018-10-16T08:58:07.399Z,25.47
2018-10-16T09:00:37.361Z,30.10
2018-10-16T09:03:06.248Z,28.80
2018-10-16T09:05:35.822Z,24.07
2018-10-16T09:08:05.583Z,23.43
2018-10-16T09:10:35.183Z,19.10
2018-10-16T09:13:04.766Z,22.43
2018-10-16T09:15:34.342Z,24.10
2018-10-16T09:18:02.882Z,29.70
2018-10-16T09:20:32.345Z,28.70
2018-10-16T09:23:01.826Z,24.50
2018-10-16T09:25:31.267Z,22.00
2018-10-16T09:28:00.992Z,19.60
2018-10-16T09:30:30.226Z,19.47
2018-10-16T09:32:59.803Z,27.50
2018-10-16T09:35:29.688Z,20.90
2018-10-16T09:37:59.054Z,20.93
2018-10-16T09:40:27.896Z,29.17
2018-10-16T09:42:57.298Z,17.23
2018-10-16T09:45:26.635Z,20.70
2018-10-16T09:47:55.993Z,18.40
2018-10-16T09:50:25.854Z,19.20
2018-10-16T09:52:54.770Z,23.63
2018-10-16T09:55:23.389Z,19.87
2018-10-16T09:57:52.198Z,19.17
2018-10-16T10:00:26.140Z,20.33
2018-10-16T10:02:54.714Z,20.50
2018-10-16T10:05:23.331Z,18.60
2018-10-16T10:07:51.881Z,30.97
2018-10-16T10:10:20.778Z,24.00
2018-10-16T10:12:49.332Z,14.60
2018-10-16T10:15:17.863Z,15.40
2018-10-16T10:17:46.411Z,26.20
2018-10-16T10:20:14.916Z,20.03
2018-10-16T10:22:43.462Z,20.37
2018-10-16T10:25:12.924Z,24.00
2018-10-16T10:27:41.456Z,22.83
2018-10-16T10:30:11.877Z,13.87
2018-10-16T10:32:40.476Z,20.67
2018-10-16T10:35:10.669Z,21.73
2018-10-16T10:37:39.218Z,11.37
2018-10-16T10:40:07.928Z,17.20
2018-10-16T10:42:36.485Z,18.27
2018-10-16T10:45:05.883Z,19.43
2018-10-16T10:47:34.456Z,54.47
2018-10-16T10:50:03.114Z,15.10
2018-10-16T10:52:31.944Z,14.57
2018-10-16T10:55:02.280Z,21.13
2018-10-16T10:57:32.015Z,18.23
2018-10-16T11:00:01.831Z,18.80
2018-10-16T11:02:30.405Z,13.27
2018-10-16T11:04:58.959Z,16.40
2018-10-16T11:07:28.769Z,16.70
2018-10-16T11:09:58.773Z,14.37
2018-10-16T11:12:28.519Z,20.80
2018-10-16T11:14:57.748Z,17.73
2018-10-16T11:17:28.312Z,16.23
2018-10-16T11:19:57.788Z,15.93
2018-10-16T11:22:27.246Z,18.93
2018-10-16T11:24:56.911Z,21.73
2018-10-16T11:27:27.101Z,34.03
2018-10-16T11:29:55.694Z,18.13
2018-10-16T11:32:25.121Z,15.70
2018-10-16T11:34:53.633Z,17.70
2018-10-16T11:37:23.190Z,16.00
2018-10-16T11:39:52.692Z,17.47
2018-10-16T11:42:21.263Z,15.10
2018-10-16T11:44:49.800Z,16.67
2018-10-16T11:47:18.426Z,17.07
2018-10-16T11:49:47.008Z,16.63
2018-10-16T11:52:15.690Z,15.20
2018-10-16T11:54:45.125Z,15.43
2018-10-16T11:57:14.610Z,19.00
2018-10-16T11:59:43.154Z,16.47
2018-10-16T12:02:11.808Z,13.00
2018-10-16T12:04:40.305Z,18.73
2018-10-16T12:07:08.975Z,12.83
2018-10-16T12:09:37.483Z,14.97
2018-10-16T12:12:06.313Z,18.90
2018-10-16T12:14:34.868Z,15.97
2018-10-16T12:17:08.775Z,17.17
2018-10-16T12:19:47.516Z,21.40
2018-10-16T12:22:17.167Z,13.57
2018-10-16T12:24:45.717Z,24.63
2018-10-16T12:27:14.292Z,16.20
2018-10-16T12:29:42.858Z,14.10
2018-10-16T12:32:11.485Z,17.60
2018-10-16T12:34:40.891Z,18.07
2018-10-16T12:37:09.548Z,23.73
2018-10-16T12:39:38.123Z,13.07
2018-10-16T12:42:06.745Z,15.03
2018-10-16T12:44:35.339Z,18.53
2018-10-16T12:47:03.969Z,13.90
2018-10-16T12:49:32.522Z,21.63
2018-10-16T12:52:01.088Z,15.07
2018-10-16T12:54:30.558Z,18.30
2018-10-16T12:56:59.145Z,19.03
2018-10-16T12:59:27.876Z,21.70
2018-10-16T13:01:57.543Z,19.07
2018-10-16T13:04:28.083Z,16.00
2018-10-16T13:07:03.036Z,15.67
2018-10-16T13:09:32.614Z,17.60
2018-10-16T13:12:02.101Z,17.50
2018-10-16T13:14:31.630Z,17.93
2018-10-16T13:17:01.116Z,28.17
2018-10-16T13:19:30.524Z,13.27
2018-10-16T13:22:00.352Z,17.20
2018-10-16T13:24:29.964Z,13.70
2018-10-16T13:26:59.406Z,16.07
2018-10-16T13:29:29.036Z,15.27
2018-10-16T13:31:59.029Z,14.97
2018-10-16T13:34:29.592Z,23.10
2018-10-16T13:36:59.014Z,13.90
2018-10-16T13:39:28.769Z,29.37
2018-10-16T13:41:58.254Z,21.77
2018-10-16T13:44:28.765Z,14.57
2018-10-16T13:46:58.086Z,19.50
2018-10-16T13:49:28.654Z,17.07
2018-10-16T13:51:58.371Z,18.50
2018-10-16T13:54:28.296Z,16.87
2018-10-16T13:56:58.025Z,20.33
2018-10-16T13:59:27.541Z,16.77
2018-10-16T14:01:56.434Z,22.73
2018-10-16T14:04:25.755Z,15.10
2018-10-16T14:06:54.647Z,18.60
2018-10-16T14:09:25.931Z,19.20
2018-10-16T14:11:54.682Z,17.90
2018-10-16T14:14:23.331Z,19.73
2018-10-16T14:16:52.191Z,20.27
2018-10-16T14:19:20.687Z,13.10
2018-10-16T14:21:49.304Z,22.20
2018-10-16T14:24:17.768Z,19.10
2018-10-16T14:26:46.584Z,18.23
2018-10-16T14:29:15.157Z,13.83
2018-10-16T14:31:43.735Z,13.23
2018-10-16T14:34:12.368Z,18.87
2018-10-16T14:36:40.922Z,14.00
2018-10-16T14:39:11.700Z,14.73
2018-10-16T14:41:40.236Z,14.13
2018-10-16T14:44:09.349Z,14.40
2018-10-16T14:46:37.912Z,23.73
2018-10-16T14:49:06.572Z,16.23
2018-10-16T14:51:35.752Z,16.47
2018-10-16T14:54:04.342Z,22.47
2018-10-16T14:56:34.542Z,25.80
2018-10-16T14:59:04.354Z,22.43
2018-10-16T15:01:33.823Z,15.33
2018-10-16T15:04:03.334Z,22.37
2018-10-16T15:06:33.198Z,19.60
2018-10-16T15:09:01.770Z,15.17
2018-10-16T15:11:30.320Z,13.10
2018-10-16T15:13:59.963Z,15.00
2018-10-16T15:16:29.490Z,19.27
2018-10-16T15:18:58.085Z,11.07
2018-10-16T15:21:27.717Z,18.63
2018-10-16T15:23:58.520Z,13.50
2018-10-16T15:26:28.153Z,19.50
2018-10-16T15:28:58.847Z,12.77
2018-10-16T15:31:28.105Z,15.60
2018-10-16T15:33:58.677Z,17.73
2018-10-16T15:36:28.269Z,13.43
2018-10-16T15:38:57.881Z,16.67
2018-10-16T15:41:27.210Z,12.60
2018-10-16T15:43:55.773Z,12.63
2018-10-16T15:46:24.815Z,15.50
2018-10-16T15:48:54.990Z,11.63
2018-10-16T15:51:24.698Z,11.97
2018-10-16T15:53:55.224Z,21.13
2018-10-16T15:56:25.515Z,14.03
2018-10-16T15:58:54.102Z,16.43
2018-10-16T16:01:23.917Z,12.43
2018-10-16T16:03:53.615Z,13.43
2018-10-16T16:06:22.211Z,13.10
2018-10-16T16:08:51.857Z,13.90
2018-10-16T16:11:21.300Z,13.53
2018-10-16T16:13:50.788Z,13.63
2018-10-16T16:16:20.201Z,15.17
2018-10-16T16:18:48.795Z,12.80
2018-10-16T16:21:17.349Z,15.70
2018-10-16T16:23:46.833Z,19.73
2018-10-16T16:26:15.464Z,14.50
2018-10-16T16:28:44.931Z,12.73
2018-10-16T16:31:13.652Z,18.23
2018-10-16T16:33:43.078Z,16.50
2018-10-16T16:36:11.719Z,18.03
2018-10-16T16:38:41.263Z,16.63
2018-10-16T16:41:10.055Z,15.20
2018-10-16T16:43:38.905Z,16.53
2018-10-16T16:46:08.457Z,17.17
2018-10-16T16:48:37.923Z,13.60
2018-10-16T16:51:07.396Z,19.87
2018-10-16T16:53:36.983Z,38.43
2018-10-16T16:56:06.619Z,324.87
2018-10-16T16:58:35.751Z,288.80
2018-10-16T17:01:05.382Z,160.87
2018-10-16T17:03:35.036Z,73.23
2018-10-16T17:06:04.634Z,38.70
2018-10-16T17:08:33.560Z,20.70
2018-10-16T17:11:02.195Z,17.80
2018-10-16T17:13:30.797Z,15.87
2018-10-16T17:16:00.273Z,17.80
2018-10-16T17:18:28.972Z,21.40
2018-10-16T17:20:58.635Z,21.13
2018-10-16T17:23:28.250Z,20.53
2018-10-16T17:25:57.837Z,18.27
2018-10-16T17:28:28.302Z,18.00
2018-10-16T17:30:57.939Z,14.27
2018-10-16T17:33:27.538Z,16.80
2018-10-16T17:35:58.085Z,17.40
2018-10-16T17:38:29.058Z,20.93
2018-10-16T17:40:58.888Z,28.87
2018-10-16T17:43:27.606Z,19.97
2018-10-16T17:45:57.285Z,18.63
2018-10-16T17:48:27.395Z,24.77
2018-10-16T17:50:56.756Z,23.27
2018-10-16T17:53:27.422Z,26.87
2018-10-16T17:55:56.872Z,37.17
2018-10-16T17:58:25.836Z,23.87
2018-10-16T18:00:55.442Z,27.93
2018-10-16T18:03:25.590Z,29.40
2018-10-16T18:05:54.166Z,26.87
2018-10-16T18:08:23.746Z,22.23
2018-10-16T18:10:52.340Z,29.17
2018-10-16T18:13:20.894Z,35.47
2018-10-16T18:15:49.499Z,38.00
2018-10-16T18:18:18.234Z,28.30
2018-10-16T18:20:46.974Z,30.90
2018-10-16T18:23:15.544Z,33.90
2018-10-16T18:25:44.251Z,34.50
2018-10-16T18:28:13.869Z,36.53
2018-10-16T18:30:42.429Z,33.37
2018-10-16T18:33:12.247Z,51.90
2018-10-16T18:35:40.786Z,55.40
2018-10-16T18:38:09.370Z,60.37
2018-10-16T18:40:37.923Z,62.07
2018-10-16T18:43:06.557Z,59.23
2018-10-16T18:45:35.242Z,64.67
2018-10-16T18:48:04.905Z,57.63
2018-10-16T18:50:35.154Z,55.00
2018-10-16T18:53:07.395Z,59.60
2018-10-16T18:55:40.156Z,65.70
2018-10-16T18:58:09.012Z,52.40
2018-10-16T19:00:38.480Z,57.60
2018-10-16T19:03:07.589Z,55.03
2018-10-16T19:05:37.595Z,44.57
2018-10-16T19:08:06.625Z,40.13
2018-10-16T19:10:36.284Z,40.40
2018-10-16T19:13:05.620Z,36.17
2018-10-16T19:15:34.561Z,40.90
2018-10-16T19:18:05.590Z,40.17
2018-10-16T19:20:43.267Z,40.53
2018-10-16T19:23:21.889Z,44.80
2018-10-16T19:25:52.884Z,43.10
2018-10-16T19:28:26.617Z,43.43
2018-10-16T19:30:56.389Z,37.17
2018-10-16T19:33:28.439Z,35.67
2018-10-16T19:35:58.984Z,33.00
2018-10-16T19:38:30.534Z,32.13
2018-10-16T19:41:01.471Z,26.33
2018-10-16T19:43:32.574Z,29.80
2018-10-16T19:46:02.728Z,35.50
2018-10-16T19:48:33.138Z,31.23
2018-10-16T19:51:01.917Z,32.67
2018-10-16T19:53:33.201Z,28.47
2018-10-16T19:56:03.955Z,40.03
2018-10-16T19:58:34.126Z,32.57
2018-10-16T20:01:04.309Z,38.13
2018-10-16T20:03:32.871Z,36.40
2018-10-16T20:06:03.286Z,41.60
2018-10-16T20:08:32.839Z,29.10
2018-10-16T20:11:02.659Z,35.47
2018-10-16T20:13:32.973Z,34.90
2018-10-16T20:16:03.828Z,36.47
2018-10-16T20:18:35.074Z,36.20
2018-10-16T20:21:04.513Z,35.50
2018-10-16T20:23:33.592Z,34.37
2018-10-16T20:26:02.340Z,35.33
2018-10-16T20:28:31.134Z,30.73
2018-10-16T20:30:59.914Z,30.40
2018-10-16T20:33:28.461Z,40.37
2018-10-16T20:35:57.632Z,35.67
2018-10-16T20:38:27.204Z,40.60
2018-10-16T20:40:56.855Z,35.57
2018-10-16T20:43:25.970Z,37.87
2018-10-16T20:45:56.145Z,38.43
2018-10-16T20:48:25.752Z,37.73
2018-10-16T20:50:56.202Z,38.47
2018-10-16T20:53:25.406Z,45.40
2018-10-16T20:55:55.455Z,36.70
2018-10-16T20:58:24.051Z,37.60
2018-10-16T21:00:53.835Z,38.73
2018-10-16T21:03:22.412Z,35.23
2018-10-16T21:05:52.065Z,41.37
2018-10-16T21:08:20.547Z,45.40
2018-10-16T21:10:49.254Z,34.60
2018-10-16T21:13:17.825Z,35.97
2018-10-16T21:15:46.428Z,55.10
2018-10-16T21:18:15.007Z,32.67
2018-10-16T21:20:43.719Z,38.83
2018-10-16T21:23:12.267Z,50.83
2018-10-16T21:25:41.819Z,45.87
2018-10-16T21:28:11.241Z,41.73
2018-10-16T21:30:40.662Z,40.40
2018-10-16T21:33:09.188Z,32.87
2018-10-16T21:35:38.738Z,34.93
2018-10-16T21:38:08.195Z,37.43
2018-10-16T21:40:37.611Z,34.13
2018-10-16T21:43:06.568Z,36.63
2018-10-16T21:45:35.133Z,34.40
2018-10-16T21:48:03.734Z,44.27
2018-10-16T21:50:33.116Z,38.07
2018-10-16T21:53:01.921Z,35.63
2018-10-16T21:55:30.446Z,41.73
2018-10-16T21:57:58.992Z,39.40
2018-10-16T22:00:33.297Z,32.17
2018-10-16T22:03:01.873Z,34.70
2018-10-16T22:05:30.411Z,32.50
2018-10-16T22:07:58.976Z,32.27
2018-10-16T22:10:27.935Z,38.63
2018-10-16T22:12:57.411Z,31.50
2018-10-16T22:15:26.789Z,40.90
2018-10-16T22:17:56.918Z,35.67
2018-10-16T22:20:26.136Z,35.80
2018-10-16T22:22:55.662Z,31.80
2018-10-16T22:25:25.488Z,32.07
2018-10-16T22:27:55.489Z,38.13
2018-10-16T22:30:24.042Z,34.47
2018-10-16T22:32:53.588Z,30.87
2018-10-16T22:35:22.234Z,32.97
2018-10-16T22:37:50.806Z,27.20
2018-10-16T22:40:19.411Z,36.20
2018-10-16T22:42:47.960Z,36.40
2018-10-16T22:45:16.536Z,33.30
2018-10-16T22:47:45.127Z,40.27
2018-10-16T22:50:13.996Z,31.40
2018-10-16T22:52:43.558Z,24.47
2018-10-16T22:55:12.252Z,34.67
2018-10-16T22:57:41.693Z,35.77
2018-10-16T23:00:14.470Z,39.70
2018-10-16T23:02:43.260Z,85.70
2018-10-16T23:05:11.959Z,56.17
2018-10-16T23:07:41.598Z,47.17
2018-10-16T23:10:11.148Z,38.60
2018-10-16T23:12:39.672Z,39.33
2018-10-16T23:15:10.539Z,32.53
2018-10-16T23:17:40.341Z,41.10
2018-10-16T23:20:11.370Z,60.90
2018-10-16T23:22:40.933Z,37.23
2018-10-16T23:25:10.558Z,39.10
2018-10-16T23:27:39.964Z,37.30
2018-10-16T23:30:09.567Z,40.40
2018-10-16T23:32:38.407Z,37.00
2018-10-16T23:35:07.101Z,40.87
2018-10-16T23:37:36.608Z,38.13
2018-10-16T23:40:06.573Z,42.60
2018-10-16T23:42:35.114Z,42.70
2018-10-16T23:45:03.880Z,35.23
2018-10-16T23:47:32.463Z,30.90
2018-10-16T23:50:01.107Z,38.57
2018-10-16T23:52:30.661Z,38.60
2018-10-16T23:54:59.293Z,39.93
2018-10-16T23:57:28.750Z,29.43
2018-10-16T23:59:58.272Z,36.00
